createdAt,value
2023-03-03T00:00:58.705Z,0.84
2023-03-03T00:03:27.489Z,0.83
2023-03-03T00:05:54.973Z,0.88
2023-03-03T00:08:22.916Z,0.86
2023-03-03T00:10:50.502Z,0.90
2023-03-03T00:13:25.554Z,0.93
2023-03-03T00:15:53.554Z,0.92
2023-03-03T00:18:35.997Z,0.83
2023-03-03T00:21:15.831Z,0.88
2023-03-03T00:23:45.341Z,0.88
2023-03-03T00:26:22.757Z,0.87
2023-03-03T00:28:53.218Z,0.84
2023-03-03T00:31:35.072Z,0.77
2023-03-03T00:34:26.216Z,0.86
2023-03-03T00:36:58.421Z,0.85
2023-03-03T00:39:37.418Z,0.90
2023-03-03T00:42:15.482Z,0.87
2023-03-03T00:44:57.321Z,0.84
2023-03-03T00:47:31.636Z,0.89
2023-03-03T00:50:07.409Z,0.92
2023-03-03T00:52:48.761Z,0.89
2023-03-03T00:55:15.512Z,0.92
2023-03-03T00:57:42.274Z,0.90
2023-03-03T01:00:10.255Z,0.97
2023-03-03T01:02:37.012Z,0.99
2023-03-03T01:05:03.963Z,0.99
2023-03-03T01:07:30.699Z,0.95
2023-03-03T01:09:57.459Z,0.98
2023-03-03T01:12:24.619Z,0.92
2023-03-03T01:14:53.190Z,0.96
2023-03-03T01:17:20.035Z,0.96
2023-03-03T01:19:46.772Z,0.97
2023-03-03T01:22:13.507Z,0.95
2023-03-03T01:24:40.291Z,0.99
2023-03-03T01:27:07.012Z,0.94
2023-03-03T01:29:33.774Z,0.94
2023-03-03T01:32:00.525Z,0.98
2023-03-03T01:34:27.284Z,0.94
2023-03-03T01:36:54.017Z,0.91
2023-03-03T01:39:20.804Z,0.91
2023-03-03T01:41:47.525Z,0.90
2023-03-03T01:44:15.852Z,0.91
2023-03-03T01:46:55.277Z,0.86
2023-03-03T01:49:29.506Z,0.87
2023-03-03T01:52:01.457Z,0.82
2023-03-03T01:54:35.776Z,0.85
2023-03-03T01:57:11.371Z,0.79
2023-03-03T01:59:45.397Z,0.75
2023-03-03T02:02:12.489Z,0.73
2023-03-03T02:04:39.760Z,0.66
2023-03-03T02:07:11.249Z,0.68
2023-03-03T02:09:59.257Z,0.63
2023-03-03T02:12:38.509Z,0.57
2023-03-03T02:15:18.916Z,0.55
2023-03-03T02:17:47.323Z,0.46
2023-03-03T02:20:49.509Z,0.43
2023-03-03T02:23:51.471Z,0.45
2023-03-03T02:26:41.689Z,0.37
2023-03-03T02:29:10.040Z,0.33
2023-03-03T02:31:38.673Z,0.32
2023-03-03T02:34:05.950Z,0.28
2023-03-03T02:36:37.200Z,0.17
2023-03-03T02:39:26.883Z,0.12
2023-03-03T02:42:06.266Z,0.13
2023-03-03T02:44:33.770Z,0.04
2023-03-03T02:47:01.285Z,0.04
2023-03-03T02:49:32.343Z,0.06
2023-03-03T02:52:00.557Z,0.06
2023-03-03T02:54:31.005Z,0.06
2023-03-03T02:56:59.542Z,0.03
2023-03-03T02:59:26.334Z,-0.08
2023-03-03T03:01:53.662Z,-0.11
2023-03-03T03:04:24.464Z,-0.09
2023-03-03T03:06:53.063Z,-0.12
2023-03-03T03:09:22.302Z,-0.16
2023-03-03T03:11:49.296Z,-0.18
2023-03-03T03:14:16.146Z,-0.21
2023-03-03T03:16:43.036Z,-0.19
2023-03-03T03:19:09.996Z,-0.19
2023-03-03T03:21:37.002Z,-0.22
2023-03-03T03:24:03.825Z,-0.20
2023-03-03T03:26:30.665Z,-0.25
2023-03-03T03:28:57.479Z,-0.23
2023-03-03T03:31:25.918Z,-0.23
2023-03-03T03:33:53.124Z,-0.16
2023-03-03T03:36:20.107Z,-0.17
2023-03-03T03:38:46.836Z,-0.12
2023-03-03T03:41:14.007Z,-0.23
2023-03-03T03:43:41.056Z,-0.26
2023-03-03T03:46:08.635Z,-0.27
2023-03-03T03:48:35.949Z,-0.28
2023-03-03T03:51:03.490Z,-0.30
2023-03-03T03:53:30.917Z,-0.32
2023-03-03T03:55:57.951Z,-0.29
2023-03-03T03:58:24.751Z,-0.24
2023-03-03T04:00:51.550Z,-0.29
2023-03-03T04:03:18.574Z,-0.31
2023-03-03T04:05:45.432Z,-0.21
2023-03-03T04:08:12.686Z,-0.14
2023-03-03T04:10:39.669Z,-0.18
2023-03-03T04:13:06.458Z,-0.16
2023-03-03T04:15:33.324Z,-0.21
2023-03-03T04:18:00.133Z,-0.17
2023-03-03T04:20:26.904Z,-0.11
2023-03-03T04:22:53.773Z,-0.07
2023-03-03T04:25:20.580Z,-0.10
2023-03-03T04:27:47.347Z,-0.06
2023-03-03T04:30:16.237Z,-0.05
2023-03-03T04:32:43.101Z,-0.04
2023-03-03T04:35:11.291Z,0.02
2023-03-03T04:37:39.109Z,0.03
2023-03-03T04:40:08.833Z,0.03
2023-03-03T04:42:36.344Z,0.02
2023-03-03T04:45:04.761Z,0.06
2023-03-03T04:47:32.697Z,0.05
2023-03-03T04:50:00.932Z,0.02
2023-03-03T04:52:28.322Z,-0.02
2023-03-03T04:54:55.100Z,-0.04
2023-03-03T04:57:21.843Z,-0.02
2023-03-03T04:59:48.973Z,-0.02
2023-03-03T05:02:15.807Z,0.07
2023-03-03T05:04:42.580Z,0.06
2023-03-03T05:07:09.879Z,0.10
2023-03-03T05:09:37.351Z,0.10
2023-03-03T05:12:04.556Z,0.08
2023-03-03T05:14:31.646Z,0.08
2023-03-03T05:16:58.457Z,0.07
2023-03-03T05:19:25.572Z,0.08
2023-03-03T05:21:52.311Z,0.08
2023-03-03T05:24:19.064Z,0.08
2023-03-03T05:26:45.837Z,0.13
2023-03-03T05:29:12.568Z,0.13
2023-03-03T05:31:39.521Z,0.12
2023-03-03T05:34:06.284Z,0.22
2023-03-03T05:36:33.007Z,0.22
2023-03-03T05:38:59.745Z,0.24
2023-03-03T05:41:26.585Z,0.24
2023-03-03T05:43:53.356Z,0.18
2023-03-03T05:46:20.193Z,0.25
2023-03-03T05:48:47.001Z,0.25
2023-03-03T05:51:14.213Z,0.32
2023-03-03T05:53:41.299Z,0.30
2023-03-03T05:56:08.332Z,0.23
2023-03-03T05:58:35.908Z,0.30
2023-03-03T06:01:02.812Z,0.30
2023-03-03T06:03:29.564Z,0.35
2023-03-03T06:05:56.341Z,0.33
2023-03-03T06:08:23.253Z,0.32
2023-03-03T06:10:50.030Z,0.31
2023-03-03T06:13:16.804Z,0.34
2023-03-03T06:15:44.267Z,0.37
2023-03-03T06:18:11.281Z,0.37
2023-03-03T06:20:38.864Z,0.36
2023-03-03T06:23:05.946Z,0.33
2023-03-03T06:25:35.776Z,0.35
2023-03-03T06:28:03.890Z,0.34
2023-03-03T06:30:30.862Z,0.37
2023-03-03T06:32:57.667Z,0.39
2023-03-03T06:35:24.567Z,0.55
2023-03-03T06:37:51.925Z,0.52
2023-03-03T06:40:18.848Z,0.40
2023-03-03T06:42:45.939Z,0.49
2023-03-03T06:45:13.459Z,0.46
2023-03-03T06:47:40.541Z,0.45
2023-03-03T06:50:10.192Z,0.43
2023-03-03T06:52:36.925Z,0.35
2023-03-03T06:55:14.093Z,0.43
2023-03-03T06:57:41.393Z,0.49
2023-03-03T07:00:27.945Z,0.54
2023-03-03T07:03:04.949Z,0.55
2023-03-03T07:05:33.211Z,0.57
2023-03-03T07:08:00.103Z,0.59
2023-03-03T07:10:31.137Z,0.59
2023-03-03T07:13:15.679Z,0.67
2023-03-03T07:15:42.424Z,0.68
2023-03-03T07:18:40.902Z,0.72
2023-03-03T07:21:16.872Z,0.80
2023-03-03T07:23:45.609Z,0.78
2023-03-03T07:26:18.382Z,0.81
2023-03-03T07:28:53.695Z,0.80
2023-03-03T07:31:37.191Z,0.86
2023-03-03T07:34:22.290Z,0.87
2023-03-03T07:36:51.601Z,0.96
2023-03-03T07:39:40.532Z,0.95
2023-03-03T07:42:32.370Z,1.02
2023-03-03T07:45:01.099Z,0.99
2023-03-03T07:47:36.459Z,1.01
2023-03-03T07:50:18.935Z,1.12
2023-03-03T07:53:01.603Z,1.20
2023-03-03T07:55:40.009Z,1.22
2023-03-03T07:58:23.853Z,1.35
2023-03-03T08:01:29.601Z,1.42
2023-03-03T08:03:57.726Z,1.43
2023-03-03T08:06:45.913Z,1.37
2023-03-03T08:09:12.577Z,1.46
2023-03-03T08:11:55.774Z,1.55
2023-03-03T08:14:28.263Z,1.63
2023-03-03T08:16:58.758Z,1.47
2023-03-03T08:19:28.374Z,1.63
2023-03-03T08:22:18.352Z,1.72
2023-03-03T08:24:45.185Z,1.79
2023-03-03T08:27:11.965Z,1.83
2023-03-03T08:29:39.180Z,1.95
2023-03-03T08:32:06.248Z,1.91
2023-03-03T08:34:33.060Z,1.98
2023-03-03T08:36:59.914Z,2.02
2023-03-03T08:39:26.706Z,1.99
2023-03-03T08:41:53.456Z,2.11
2023-03-03T08:44:20.811Z,2.27
2023-03-03T08:46:47.724Z,2.34
2023-03-03T08:49:14.711Z,2.39
2023-03-03T08:51:42.096Z,2.53
2023-03-03T08:54:09.245Z,2.54
2023-03-03T08:56:36.471Z,2.54
2023-03-03T08:59:03.683Z,2.61
2023-03-03T09:01:32.694Z,2.72
2023-03-03T09:03:59.760Z,2.76
2023-03-03T09:06:26.631Z,2.75
2023-03-03T09:08:55.012Z,2.88
2023-03-03T09:11:28.038Z,2.95
2023-03-03T09:14:02.810Z,2.93
2023-03-03T09:16:38.988Z,2.98
2023-03-03T09:19:32.528Z,3.11
2023-03-03T09:22:24.508Z,3.16
2023-03-03T09:24:56.201Z,3.24
2023-03-03T09:27:30.042Z,3.31
2023-03-03T09:30:03.563Z,3.30
2023-03-03T09:32:43.282Z,3.32
2023-03-03T09:35:39.063Z,3.45
2023-03-03T09:38:33.162Z,3.59
2023-03-03T09:41:21.454Z,3.74
2023-03-03T09:44:07.042Z,3.72
2023-03-03T09:47:03.663Z,3.83
2023-03-03T09:50:15.596Z,3.90
2023-03-03T09:53:15.424Z,3.97
2023-03-03T09:56:01.914Z,3.97
2023-03-03T09:58:46.353Z,4.12
2023-03-03T10:01:38.548Z,4.21
2023-03-03T10:04:44.257Z,4.33
2023-03-03T10:07:40.425Z,4.28
2023-03-03T10:10:34.162Z,4.64
2023-03-03T10:13:52.157Z,4.84
2023-03-03T10:16:49.887Z,4.92
2023-03-03T10:19:39.584Z,5.03
2023-03-03T10:22:20.818Z,5.13
2023-03-03T10:25:28.088Z,5.21
2023-03-03T10:28:34.431Z,5.46
2023-03-03T10:31:14.901Z,5.46
2023-03-03T10:34:00.654Z,5.61
2023-03-03T10:36:43.930Z,5.77
2023-03-03T10:39:34.734Z,5.87
2023-03-03T10:42:24.749Z,6.01
2023-03-03T10:45:13.543Z,6.03
2023-03-03T10:48:14.201Z,5.89
2023-03-03T10:51:19.340Z,6.06
2023-03-03T10:54:44.106Z,6.30
2023-03-03T10:57:27.979Z,6.54
2023-03-03T11:00:26.598Z,6.49
2023-03-03T11:03:33.890Z,6.75
2023-03-03T11:06:20.773Z,6.83
2023-03-03T11:09:17.240Z,6.96
2023-03-03T11:11:43.991Z,7.12
2023-03-03T11:14:50.529Z,7.17
2023-03-03T11:17:29.932Z,7.30
2023-03-03T11:20:33.316Z,7.46
2023-03-03T11:23:44.472Z,7.61
2023-03-03T11:26:54.598Z,7.66
2023-03-03T11:30:01.076Z,7.68
2023-03-03T11:32:43.148Z,7.61
2023-03-03T11:35:37.085Z,7.81
2023-03-03T11:38:36.610Z,8.02
2023-03-03T11:41:20.754Z,8.06
2023-03-03T11:44:00.263Z,8.04
2023-03-03T11:46:37.149Z,8.12
2023-03-03T11:49:12.018Z,7.87
2023-03-03T11:51:50.617Z,7.86
2023-03-03T11:54:34.818Z,8.07
2023-03-03T11:57:21.065Z,7.98
2023-03-03T12:00:28.951Z,8.22
2023-03-03T12:03:28.042Z,8.35
2023-03-03T12:06:12.485Z,8.38
2023-03-03T12:09:01.111Z,8.44
2023-03-03T12:11:38.002Z,8.46
2023-03-03T12:14:52.041Z,8.65
2023-03-03T12:17:46.211Z,8.78
2023-03-03T12:20:52.155Z,8.83
2023-03-03T12:23:43.051Z,8.93
2023-03-03T12:26:34.501Z,9.01
2023-03-03T12:29:53.591Z,9.00
2023-03-03T12:32:41.751Z,9.02
2023-03-03T12:35:18.224Z,9.16
2023-03-03T12:37:55.029Z,9.28
2023-03-03T12:40:36.242Z,9.46
2023-03-03T12:43:26.539Z,9.50
2023-03-03T12:46:07.973Z,9.54
2023-03-03T12:48:52.438Z,9.62
2023-03-03T12:51:37.506Z,9.75
2023-03-03T12:54:38.118Z,9.82
2023-03-03T12:57:31.338Z,9.90
2023-03-03T13:00:28.531Z,9.99
2023-03-03T13:03:17.943Z,9.94
2023-03-03T13:06:16.283Z,9.84
2023-03-03T13:09:07.293Z,9.74
2023-03-03T13:12:08.203Z,9.71
2023-03-03T13:15:01.558Z,9.80
2023-03-03T13:17:35.712Z,9.94
2023-03-03T13:20:40.851Z,9.93
2023-03-03T13:23:17.822Z,9.97
2023-03-03T13:25:49.752Z,10.03
2023-03-03T13:28:28.845Z,10.02
2023-03-03T13:31:22.095Z,9.86
2023-03-03T13:34:02.047Z,9.91
2023-03-03T13:36:54.217Z,9.94
2023-03-03T13:39:27.458Z,10.06
2023-03-03T13:42:06.917Z,10.13
2023-03-03T13:44:43.293Z,10.08
2023-03-03T13:47:30.860Z,10.10
2023-03-03T13:50:36.650Z,10.13
2023-03-03T13:53:12.044Z,10.23
2023-03-03T13:56:50.354Z,10.37
2023-03-03T13:59:35.966Z,10.55
2023-03-03T14:02:26.292Z,10.28
2023-03-03T14:05:12.670Z,10.41
2023-03-03T14:08:07.751Z,10.28
2023-03-03T14:10:52.862Z,10.05
2023-03-03T14:13:47.213Z,10.14
2023-03-03T14:16:34.835Z,10.18
2023-03-03T14:19:30.873Z,10.29
2023-03-03T14:21:57.980Z,10.14
2023-03-03T14:24:26.588Z,10.14
2023-03-03T14:26:59.036Z,10.12
2023-03-03T14:29:28.836Z,10.21
2023-03-03T14:31:58.391Z,10.15
2023-03-03T14:34:41.216Z,10.26
2023-03-03T14:37:43.603Z,10.21
2023-03-03T14:40:20.300Z,10.04
2023-03-03T14:42:52.961Z,10.14
2023-03-03T14:45:41.895Z,10.14
2023-03-03T14:48:24.992Z,10.17
2023-03-03T14:51:04.763Z,10.25
2023-03-03T14:53:38.503Z,10.28
2023-03-03T14:56:49.467Z,10.22
2023-03-03T14:59:20.125Z,10.35
2023-03-03T15:01:47.891Z,10.12
2023-03-03T15:04:23.968Z,10.25
2023-03-03T15:06:53.980Z,10.31
2023-03-03T15:09:43.385Z,10.22
2023-03-03T15:12:26.238Z,10.26
2023-03-03T15:15:05.543Z,9.86
2023-03-03T15:17:40.748Z,9.93
2023-03-03T15:20:22.820Z,9.99
2023-03-03T15:23:16.344Z,9.92
2023-03-03T15:26:09.917Z,9.87
2023-03-03T15:29:02.706Z,9.67
2023-03-03T15:31:37.119Z,9.54
2023-03-03T15:34:34.810Z,9.70
2023-03-03T15:37:39.418Z,9.78
2023-03-03T15:40:21.323Z,9.76
2023-03-03T15:43:12.131Z,9.70
2023-03-03T15:45:58.073Z,9.54
2023-03-03T15:49:12.317Z,9.30
2023-03-03T15:52:03.155Z,9.34
2023-03-03T15:54:57.202Z,9.30
2023-03-03T15:57:46.773Z,9.12
2023-03-03T16:00:38.843Z,9.07
2023-03-03T16:03:15.419Z,9.04
2023-03-03T16:05:54.608Z,9.00
2023-03-03T16:09:07.044Z,8.91
2023-03-03T16:11:50.370Z,8.80
2023-03-03T16:14:33.446Z,8.65
2023-03-03T16:17:24.369Z,8.62
2023-03-03T16:20:03.637Z,8.74
2023-03-03T16:22:50.162Z,8.62
2023-03-03T16:25:47.150Z,8.58
2023-03-03T16:28:16.748Z,8.56
2023-03-03T16:31:41.329Z,8.46
2023-03-03T16:34:36.973Z,8.47
2023-03-03T16:37:44.329Z,8.29
2023-03-03T16:40:36.042Z,8.28
2023-03-03T16:43:21.807Z,8.22
2023-03-03T16:45:48.995Z,8.21
2023-03-03T16:48:32.915Z,8.22
2023-03-03T16:51:14.520Z,8.12
2023-03-03T16:54:03.019Z,8.10
2023-03-03T16:57:06.412Z,7.97
2023-03-03T16:59:51.242Z,7.92
2023-03-03T17:03:04.346Z,7.82
2023-03-03T17:05:45.030Z,7.79
2023-03-03T17:08:20.654Z,7.72
2023-03-03T17:11:35.104Z,7.60
2023-03-03T17:14:20.224Z,7.50
2023-03-03T17:17:08.149Z,7.40
2023-03-03T17:19:37.630Z,7.32
2023-03-03T17:22:19.108Z,7.12
2023-03-03T17:25:13.169Z,7.07
2023-03-03T17:28:13.533Z,6.92
2023-03-03T17:30:55.181Z,6.51
2023-03-03T17:33:37.007Z,6.26
2023-03-03T17:36:24.683Z,6.17
2023-03-03T17:39:31.508Z,6.11
2023-03-03T17:42:19.136Z,6.01
2023-03-03T17:45:00.472Z,5.90
2023-03-03T17:47:57.283Z,5.82
2023-03-03T17:50:54.501Z,5.63
2023-03-03T17:53:56.361Z,5.51
2023-03-03T17:56:57.950Z,5.38
2023-03-03T17:59:59.035Z,5.30
2023-03-03T18:02:32.350Z,5.18
2023-03-03T18:05:45.722Z,5.04
2023-03-03T18:08:24.207Z,4.93
2023-03-03T18:11:30.232Z,4.80
2023-03-03T18:14:26.300Z,4.72
2023-03-03T18:17:04.984Z,4.65
2023-03-03T18:20:00.350Z,4.47
2023-03-03T18:22:34.843Z,4.42
2023-03-03T18:25:20.271Z,4.26
2023-03-03T18:28:08.405Z,4.08
2023-03-03T18:30:58.651Z,3.94
2023-03-03T18:34:03.876Z,3.72
2023-03-03T18:36:32.009Z,3.62
2023-03-03T18:39:03.083Z,3.44
2023-03-03T18:42:04.439Z,3.33
2023-03-03T18:44:32.095Z,3.15
2023-03-03T18:47:01.581Z,3.11
2023-03-03T18:49:58.046Z,2.91
2023-03-03T18:52:31.396Z,2.81
2023-03-03T18:55:10.152Z,2.69
2023-03-03T18:57:38.594Z,2.54
2023-03-03T19:00:25.919Z,2.43
2023-03-03T19:02:59.195Z,2.21
2023-03-03T19:05:30.928Z,2.18
2023-03-03T19:08:03.130Z,2.12
2023-03-03T19:10:52.461Z,2.00
2023-03-03T19:13:34.341Z,1.98
2023-03-03T19:16:06.451Z,1.73
2023-03-03T19:18:41.995Z,1.73
2023-03-03T19:21:11.586Z,1.53
2023-03-03T19:24:00.651Z,1.50
2023-03-03T19:26:30.492Z,1.54
2023-03-03T19:29:46.295Z,1.52
2023-03-03T19:32:44.273Z,1.37
2023-03-03T19:35:46.187Z,1.36
2023-03-03T19:38:31.310Z,1.28
2023-03-03T19:41:22.973Z,1.15
2023-03-03T19:44:27.896Z,1.00
2023-03-03T19:47:11.985Z,0.97
2023-03-03T19:50:06.338Z,1.01
2023-03-03T19:52:42.122Z,1.05
2023-03-03T19:55:30.741Z,0.95
2023-03-03T19:58:25.926Z,0.93
2023-03-03T20:01:32.653Z,0.81
2023-03-03T20:04:32.479Z,0.74
2023-03-03T20:07:29.183Z,0.63
2023-03-03T20:10:12.916Z,0.65
2023-03-03T20:12:47.783Z,0.54
2023-03-03T20:15:28.730Z,0.39
2023-03-03T20:18:01.442Z,0.43
2023-03-03T20:20:55.542Z,0.51
2023-03-03T20:24:18.568Z,0.51
2023-03-03T20:27:10.726Z,0.44
2023-03-03T20:29:59.367Z,0.48
2023-03-03T20:33:11.672Z,0.43
2023-03-03T20:36:10.542Z,0.33
2023-03-03T20:39:06.425Z,0.32
2023-03-03T20:42:14.019Z,0.22
2023-03-03T20:44:53.565Z,0.03
2023-03-03T20:47:46.080Z,0.05
2023-03-03T20:50:35.433Z,0.05
2023-03-03T20:53:29.385Z,0.01
2023-03-03T20:56:17.878Z,-0.01
2023-03-03T20:59:13.471Z,-0.17
2023-03-03T21:02:00.719Z,0.02
2023-03-03T21:04:37.075Z,0.07
2023-03-03T21:07:05.418Z,0.06
2023-03-03T21:09:39.836Z,0.05
2023-03-03T21:12:30.055Z,0.12
2023-03-03T21:15:05.733Z,0.06
2023-03-03T21:17:32.527Z,0.08
2023-03-03T21:20:19.428Z,0.07
2023-03-03T21:22:46.586Z,-0.14
2023-03-03T21:25:48.201Z,-0.10
2023-03-03T21:28:32.227Z,-0.05
2023-03-03T21:31:15.600Z,-0.07
2023-03-03T21:33:50.668Z,-0.06
2023-03-03T21:36:32.753Z,-0.02
2023-03-03T21:39:02.228Z,-0.10
2023-03-03T21:41:53.137Z,-0.04
2023-03-03T21:44:44.781Z,-0.15
2023-03-03T21:47:15.170Z,-0.19
2023-03-03T21:49:43.693Z,-0.13
2023-03-03T21:52:12.223Z,-0.19
2023-03-03T21:54:39.708Z,-0.01
2023-03-03T21:57:06.867Z,-0.15
2023-03-03T21:59:33.634Z,-0.14
2023-03-03T22:02:00.545Z,-0.06
2023-03-03T22:04:27.353Z,-0.08
2023-03-03T22:06:54.197Z,-0.08
2023-03-03T22:09:21.046Z,-0.18
2023-03-03T22:11:48.276Z,-0.10
2023-03-03T22:14:15.340Z,-0.14
2023-03-03T22:16:42.335Z,-0.11
2023-03-03T22:19:09.731Z,-0.18
2023-03-03T22:21:38.446Z,-0.27
2023-03-03T22:24:06.815Z,-0.28
2023-03-03T22:26:33.821Z,-0.31
2023-03-03T22:29:00.848Z,-0.26
2023-03-03T22:31:27.889Z,-0.36
2023-03-03T22:33:54.673Z,-0.43
2023-03-03T22:36:21.637Z,-0.49
2023-03-03T22:38:49.002Z,-0.45
2023-03-03T22:41:16.298Z,-0.54
2023-03-03T22:43:43.282Z,-0.66
2023-03-03T22:46:10.623Z,-0.64
2023-03-03T22:48:38.658Z,-0.61
2023-03-03T22:51:06.144Z,-0.68
2023-03-03T22:53:33.384Z,-0.80
2023-03-03T22:56:00.303Z,-0.79
2023-03-03T22:58:27.059Z,-0.72
2023-03-03T23:00:54.527Z,-0.76
2023-03-03T23:03:21.892Z,-0.90
2023-03-03T23:05:51.678Z,-0.87
2023-03-03T23:08:20.493Z,-0.88
2023-03-03T23:10:48.561Z,-0.90
2023-03-03T23:13:16.174Z,-0.97
2023-03-03T23:15:43.332Z,-0.98
2023-03-03T23:18:10.498Z,-1.10
2023-03-03T23:20:37.811Z,-1.02
2023-03-03T23:23:05.057Z,-1.01
2023-03-03T23:25:31.884Z,-0.98
2023-03-03T23:27:59.063Z,-1.04
2023-03-03T23:30:26.296Z,-0.97
2023-03-03T23:32:53.905Z,-1.08
2023-03-03T23:35:20.725Z,-1.15
2023-03-03T23:37:47.814Z,-1.13
2023-03-03T23:40:16.412Z,-1.16
2023-03-03T23:42:43.928Z,-1.18
2023-03-03T23:45:12.966Z,-1.13
2023-03-03T23:47:39.941Z,-1.14
2023-03-03T23:50:07.589Z,-1.18
2023-03-03T23:52:34.388Z,-1.23
2023-03-03T23:55:02.061Z,-1.22
2023-03-03T23:57:29.048Z,-1.23
2023-03-03T23:59:55.865Z,-1.28
